Time;durP1;ratioP1;P1;durP2;ratioP2;P2;SDS_P1;SDS_P2;PMS_P1;PMS_P2;Temp;Humidity;BMP_temperature;BMP_pressure;BME280_temperature;BME280_humidity;BME280_pressure;Samples;Min_cycle;Max_cycle;Signal;HPM_P1;HPM_P2
2022/03/02 00:00:04;;;;;;;4.18;0.40;;;20.80;99.90;;;;;;5021357;28;20026;-74
2022/03/02 00:02:31;;;;;;;6.20;1.02;;;20.80;99.90;;;;;;5031690;28;20203;-77
2022/03/02 00:04:58;;;;;;;2.55;0.35;;;20.80;99.90;;;;;;5032420;28;20476;-73
2022/03/02 00:07:26;;;;;;;2.92;0.90;;;20.80;99.90;;;;;;5032026;28;20037;-76
2022/03/02 00:09:53;;;;;;;1.25;0.50;;;20.80;99.90;;;;;;5032127;28;20238;-77
2022/03/02 00:12:20;;;;;;;3.33;0.93;;;20.70;99.90;;;;;;5019872;28;20027;-76
2022/03/02 00:14:48;;;;;;;4.25;0.75;;;20.60;99.90;;;;;;5030909;28;20033;-76
2022/03/02 00:17:15;;;;;;;1.00;0.43;;;20.60;99.90;;;;;;5029751;28;20025;-79
2022/03/02 00:19:42;;;;;;;1.08;0.30;;;20.50;99.90;;;;;;5029970;28;20033;-74
2022/03/02 00:22:11;;;;;;;1.42;0.20;;;20.50;99.90;;;;;;5022641;28;20530;-72
2022/03/02 00:24:38;;;;;;;2.28;0.43;;;20.50;99.90;;;;;;5022011;28;20064;-77
2022/03/02 00:27:06;;;;;;;1.38;0.40;;;20.50;99.90;;;;;;5022691;28;20053;-76
2022/03/02 00:29:33;;;;;;;1.73;0.63;;;20.50;99.90;;;;;;5023864;28;20046;-75
2022/03/02 00:32:00;;;;;;;1.52;0.50;;;20.40;99.90;;;;;;5027238;28;20037;-75
2022/03/02 00:34:28;;;;;;;2.30;0.73;;;20.50;99.90;;;;;;5025198;28;20080;-75
2022/03/02 00:36:55;;;;;;;2.30;0.30;;;20.40;99.90;;;;;;5022676;28;20053;-76
2022/03/02 00:39:22;;;;;;;1.38;0.20;;;20.50;99.90;;;;;;5022480;28;20378;-76
2022/03/02 00:41:51;;;;;;;1.20;0.30;;;20.40;99.90;;;;;;5024793;28;20060;-76
2022/03/02 00:44:21;;;;;;;0.90;0.30;;;20.40;99.90;;;;;;5024036;28;20079;-74
2022/03/02 00:46:49;;;;;;;1.05;0.20;;;20.40;99.90;;;;;;5027823;28;20021;-75
2022/03/02 00:49:16;;;;;;;0.20;0.10;;;20.40;99.90;;;;;;5031536;28;20041;-75
2022/03/02 00:51:44;;;;;;;1.13;0.20;;;20.50;99.90;;;;;;5029507;28;20037;-75
2022/03/02 00:54:11;;;;;;;1.30;0.38;;;20.50;99.90;;;;;;5031625;28;20152;-75
2022/03/02 00:56:39;;;;;;;0.40;0.20;;;20.50;99.90;;;;;;5028090;28;20025;-74
2022/03/02 00:59:06;;;;;;;2.47;0.63;;;20.50;99.90;;;;;;5031361;28;20033;-73
2022/03/02 01:01:33;;;;;;;1.20;0.20;;;20.50;99.90;;;;;;5030815;28;20025;-75
2022/03/02 01:04:01;;;;;;;1.70;0.30;;;20.50;99.90;;;;;;5026554;28;20103;-76
2022/03/02 01:06:28;;;;;;;2.95;0.43;;;20.40;99.90;;;;;;5031338;28;20047;-76
2022/03/02 01:08:55;;;;;;;0.63;0.30;;;20.50;99.90;;;;;;5030541;28;20075;-76
2022/03/02 01:11:23;;;;;;;0.57;0.32;;;20.50;99.90;;;;;;5030593;28;20392;-78
2022/03/02 01:13:50;;;;;;;3.85;0.50;;;20.60;99.90;;;;;;5031067;28;20021;-79
2022/03/02 01:16:18;;;;;;;4.32;0.52;;;20.60;99.90;;;;;;5024889;28;20430;-77
2022/03/02 01:18:45;;;;;;;5.15;0.93;;;20.60;99.90;;;;;;5022394;28;20117;-78
2022/03/02 01:21:12;;;;;;;6.25;0.75;;;20.60;99.90;;;;;;5021355;28;20064;-74
2022/03/02 01:23:40;;;;;;;3.70;0.57;;;20.70;99.90;;;;;;5022417;28;20029;-73
2022/03/02 01:26:07;;;;;;;5.30;0.93;;;20.70;99.90;;;;;;5019819;28;20033;-75
2022/03/02 01:28:34;;;;;;;4.63;0.95;;;20.60;99.90;;;;;;5022593;28;20060;-73
2022/03/02 01:31:02;;;;;;;3.25;1.25;;;20.50;99.90;;;;;;5021195;28;20471;-75
2022/03/02 01:33:30;;;;;;;5.88;1.02;;;20.40;99.90;;;;;;5020180;28;20065;-75
2022/03/02 01:35:58;;;;;;;2.95;0.50;;;20.20;99.90;;;;;;5021013;28;20025;-76
2022/03/02 01:38:25;;;;;;;4.63;0.47;;;20.20;99.90;;;;;;5021718;28;20034;-74
2022/03/02 01:40:52;;;;;;;0.17;0.13;;;20.10;99.90;;;;;;5020597;28;20067;-74
2022/03/02 01:43:20;;;;;;;7.05;0.38;;;20.00;99.90;;;;;;5024171;28;20037;-76
2022/03/02 01:45:47;;;;;;;7.82;0.52;;;19.90;99.90;;;;;;5021257;28;20353;-76
2022/03/02 01:48:15;;;;;;;1.20;0.20;;;19.90;99.90;;;;;;5021512;28;20488;-78
2022/03/02 01:50:42;;;;;;;4.93;0.40;;;19.90;99.90;;;;;;5020619;28;20033;-75
2022/03/02 01:53:09;;;;;;;2.70;0.20;;;19.90;99.90;;;;;;5020342;28;20117;-74
2022/03/02 01:55:37;;;;;;;4.60;0.40;;;19.90;99.90;;;;;;5020370;28;20479;-76
2022/03/02 01:58:05;;;;;;;3.88;0.43;;;19.90;99.90;;;;;;5020969;28;20446;-78
2022/03/02 02:00:33;;;;;;;2.72;0.32;;;19.90;99.90;;;;;;5021367;28;20486;-78
2022/03/02 02:03:00;;;;;;;4.38;0.40;;;19.90;99.90;;;;;;5022110;28;20133;-78
2022/03/02 02:05:28;;;;;;;3.00;0.65;;;20.00;99.90;;;;;;5020903;28;20060;-76
2022/03/02 02:07:55;;;;;;;3.25;0.38;;;20.00;99.90;;;;;;5027054;28;20037;-78
2022/03/02 02:10:23;;;;;;;5.25;0.95;;;20.00;99.90;;;;;;5029753;28;20481;-74
2022/03/02 02:12:50;;;;;;;4.80;0.40;;;20.10;99.90;;;;;;5030225;28;20048;-74
2022/03/02 02:15:17;;;;;;;2.40;0.57;;;20.10;99.90;;;;;;5025355;28;20499;-74
2022/03/02 02:17:45;;;;;;;2.80;0.80;;;20.10;99.90;;;;;;5029622;28;20022;-75
2022/03/02 02:20:13;;;;;;;3.28;0.50;;;20.10;99.90;;;;;;5026326;28;20021;-78
2022/03/02 02:22:42;;;;;;;2.85;0.60;;;20.20;99.90;;;;;;5030523;28;20088;-76
2022/03/02 02:25:10;;;;;;;2.92;0.52;;;20.20;99.90;;;;;;5025966;28;20056;-75
2022/03/02 02:27:37;;;;;;;3.05;1.50;;;20.20;99.90;;;;;;5022768;28;20046;-77
2022/03/02 02:30:06;;;;;;;4.93;0.93;;;20.20;99.90;;;;;;5030789;28;20026;-74
2022/03/02 02:32:36;;;;;;;8.45;1.63;;;20.20;99.90;;;;;;5032068;28;20070;-75
2022/03/02 02:35:04;;;;;;;4.25;0.50;;;20.30;99.90;;;;;;5031050;28;20158;-77
2022/03/02 02:37:33;;;;;;;2.35;0.70;;;20.20;99.90;;;;;;5024635;28;20550;-76
2022/03/02 02:40:09;;;;;;;6.93;2.00;;;20.30;99.90;;;;;;5020966;28;20166;-78
2022/03/02 02:42:37;;;;;;;6.25;1.88;;;20.30;99.90;;;;;;5023934;28;20029;-76
2022/03/02 02:45:05;;;;;;;6.55;1.35;;;20.30;99.90;;;;;;5020150;28;20369;-75
2022/03/02 02:47:33;;;;;;;4.10;0.95;;;20.40;99.90;;;;;;5020638;28;20025;-75
2022/03/02 02:50:00;;;;;;;4.88;1.02;;;20.40;99.90;;;;;;5017244;28;20452;-75
2022/03/02 02:52:27;;;;;;;5.78;0.90;;;20.40;99.90;;;;;;5020037;28;20121;-76
2022/03/02 02:54:55;;;;;;;5.28;0.60;;;20.40;99.90;;;;;;5019752;28;20369;-76
2022/03/02 02:57:22;;;;;;;2.63;0.90;;;20.40;99.90;;;;;;5021144;28;20113;-75
2022/03/02 02:59:50;;;;;;;5.63;1.13;;;20.40;99.90;;;;;;5021368;28;20030;-75
2022/03/02 03:02:17;;;;;;;7.88;0.60;;;20.40;99.90;;;;;;5020434;28;20029;-75
2022/03/02 03:04:45;;;;;;;5.88;0.82;;;20.40;99.90;;;;;;5018791;28;20033;-75
2022/03/02 03:07:12;;;;;;;5.05;0.60;;;20.40;99.90;;;;;;5021332;28;20049;-77
2022/03/02 03:09:39;;;;;;;3.80;1.02;;;20.40;99.90;;;;;;5021340;28;20031;-73
2022/03/02 03:12:07;;;;;;;4.70;0.68;;;20.40;99.90;;;;;;5021283;28;20026;-78
2022/03/02 03:14:34;;;;;;;5.75;1.05;;;20.40;99.90;;;;;;5020958;28;20064;-77
2022/03/02 03:17:01;;;;;;;5.05;0.70;;;20.40;99.90;;;;;;5020383;28;20104;-77
2022/03/02 03:19:29;;;;;;;1.67;0.80;;;20.40;99.90;;;;;;5023282;28;20056;-77
2022/03/02 03:22:02;;;;;;;3.45;0.57;;;20.50;99.90;;;;;;5022803;28;20033;-77
2022/03/02 03:24:29;;;;;;;3.72;0.65;;;20.60;99.90;;;;;;5025935;28;20030;-76
2022/03/02 03:26:57;;;;;;;3.80;0.35;;;20.60;99.90;;;;;;5024692;28;20029;-75
2022/03/02 03:29:24;;;;;;;1.70;0.40;;;20.60;99.90;;;;;;5029019;28;20049;-77
2022/03/02 03:31:51;;;;;;;3.50;0.70;;;20.60;99.90;;;;;;5025993;28;20064;-74
2022/03/02 03:34:19;;;;;;;3.70;0.75;;;20.60;99.90;;;;;;5027332;28;20064;-73
2022/03/02 03:36:46;;;;;;;4.78;0.70;;;20.60;99.90;;;;;;5030790;28;20038;-75
2022/03/02 03:39:13;;;;;;;3.45;0.57;;;20.60;99.90;;;;;;5031224;28;20037;-75
2022/03/02 03:41:41;;;;;;;2.63;0.38;;;20.60;99.90;;;;;;5031550;28;20116;-76
2022/03/02 03:44:08;;;;;;;1.42;0.93;;;20.70;99.90;;;;;;5030106;28;20017;-75
2022/03/02 03:46:35;;;;;;;4.45;1.35;;;20.70;99.90;;;;;;5024907;28;20029;-74
2022/03/02 03:49:02;;;;;;;4.40;0.70;;;20.70;99.90;;;;;;5026325;28;20100;-76
2022/03/02 03:51:30;;;;;;;4.03;0.65;;;20.70;99.90;;;;;;5030653;28;20029;-75
2022/03/02 03:53:57;;;;;;;1.80;0.90;;;20.70;99.90;;;;;;5020128;28;20444;-78
2022/03/02 03:56:24;;;;;;;1.92;0.30;;;20.70;99.90;;;;;;5025594;28;20022;-75
2022/03/02 03:58:52;;;;;;;2.70;1.05;;;20.70;99.90;;;;;;5022984;28;20057;-78
2022/03/02 04:01:19;;;;;;;4.90;1.20;;;20.70;99.90;;;;;;5030257;28;20068;-76
2022/03/02 04:03:47;;;;;;;8.60;1.45;;;20.70;99.90;;;;;;5027325;28;20040;-76
2022/03/02 04:06:14;;;;;;;5.40;2.42;;;20.60;99.90;;;;;;5025749;28;20117;-74
2022/03/02 04:08:41;;;;;;;3.63;1.27;;;20.70;99.90;;;;;;5023370;28;20094;-75
2022/03/02 04:11:09;;;;;;;5.22;0.95;;;20.70;99.90;;;;;;5022614;28;20030;-75
2022/03/02 04:13:36;;;;;;;5.70;1.02;;;20.60;99.90;;;;;;5028578;28;20029;-76
2022/03/02 04:16:04;;;;;;;9.13;1.50;;;20.60;99.90;;;;;;5029826;28;20026;-76
2022/03/02 04:18:34;;;;;;;7.78;1.67;;;20.70;99.90;;;;;;5032645;28;20072;-76
2022/03/02 04:21:02;;;;;;;4.30;0.70;;;20.70;99.90;;;;;;5029704;28;20143;-75
2022/03/02 04:23:30;;;;;;;5.20;1.20;;;20.70;99.90;;;;;;5024366;28;20399;-75
2022/03/02 04:25:58;;;;;;;9.80;1.38;;;20.80;99.90;;;;;;5027425;28;20029;-74
2022/03/02 04:28:25;;;;;;;8.80;1.02;;;20.80;99.90;;;;;;5029498;28;21739;-75
2022/03/02 04:30:52;;;;;;;6.30;1.25;;;20.80;99.90;;;;;;5030870;28;20587;-75
2022/03/02 04:33:19;;;;;;;4.28;0.88;;;20.80;99.90;;;;;;5030796;28;20388;-74
2022/03/02 04:35:47;;;;;;;5.38;1.25;;;20.80;99.90;;;;;;5030738;28;20036;-75
2022/03/02 04:38:15;;;;;;;6.70;1.23;;;20.80;99.90;;;;;;5028004;28;20033;-73
2022/03/02 04:40:43;;;;;;;10.38;1.33;;;20.70;99.90;;;;;;5021570;28;20037;-74
2022/03/02 04:43:10;;;;;;;6.32;1.02;;;20.70;99.90;;;;;;5027005;28;20083;-77
2022/03/02 04:45:38;;;;;;;8.45;1.48;;;20.70;99.90;;;;;;5027014;28;20037;-74
2022/03/02 04:48:06;;;;;;;11.20;1.00;;;20.70;99.90;;;;;;5028995;28;20086;-73
2022/03/02 04:50:33;;;;;;;8.75;1.02;;;20.70;99.90;;;;;;5028339;28;20539;-75
2022/03/02 04:53:01;;;;;;;9.75;1.40;;;20.70;99.90;;;;;;5024851;28;20025;-77
2022/03/02 04:55:28;;;;;;;7.40;1.38;;;20.60;99.90;;;;;;5027518;28;20041;-78
2022/03/02 04:57:59;;;;;;;5.50;0.60;;;20.70;99.90;;;;;;5026999;28;20034;-76
2022/03/02 05:00:32;;;;;;;3.25;0.52;;;20.70;99.90;;;;;;5021916;28;20033;-75
2022/03/02 05:03:01;;;;;;;3.78;1.55;;;20.70;99.90;;;;;;5023172;28;20056;-76
2022/03/02 05:05:30;;;;;;;12.05;2.13;;;20.80;99.90;;;;;;5026725;28;20026;-75
2022/03/02 05:07:58;;;;;;;7.18;1.20;;;20.80;99.90;;;;;;5030229;28;20033;-73
2022/03/02 05:10:26;;;;;;;6.78;1.05;;;20.80;99.90;;;;;;5020468;28;20105;-75
2022/03/02 05:12:55;;;;;;;8.80;1.30;;;20.80;99.90;;;;;;5018859;28;20554;-74
2022/03/02 05:15:23;;;;;;;6.25;1.63;;;20.80;99.90;;;;;;5030185;28;20141;-73
2022/03/02 05:17:51;;;;;;;8.80;1.45;;;20.80;99.90;;;;;;5024687;28;20029;-74
2022/03/02 05:20:20;;;;;;;4.50;1.52;;;20.90;99.90;;;;;;5023721;28;20021;-72
2022/03/02 05:22:49;;;;;;;5.60;1.20;;;20.90;99.90;;;;;;5031554;28;20103;-75
2022/03/02 05:25:17;;;;;;;4.30;0.90;;;20.90;99.90;;;;;;5029841;28;20037;-76
2022/03/02 05:27:45;;;;;;;7.22;1.50;;;20.90;99.90;;;;;;5031641;28;20041;-74
2022/03/02 05:30:14;;;;;;;7.22;1.45;;;20.90;99.90;;;;;;5024015;28;20129;-76
2022/03/02 05:32:42;;;;;;;7.15;1.30;;;20.90;99.90;;;;;;5024550;28;20612;-74
2022/03/02 05:35:10;;;;;;;6.28;1.10;;;20.90;99.90;;;;;;5021475;28;20120;-73
2022/03/02 05:37:42;;;;;;;6.90;1.10;;;20.90;99.90;;;;;;5024665;28;20017;-76
2022/03/02 05:40:12;;;;;;;12.15;2.00;;;20.90;99.90;;;;;;5020599;28;20024;-76
2022/03/02 05:42:40;;;;;;;5.65;1.10;;;20.90;99.90;;;;;;5019237;28;20034;-75
2022/03/02 05:45:09;;;;;;;9.13;1.77;;;20.90;99.90;;;;;;5022401;28;20108;-72
2022/03/02 05:47:40;;;;;;;9.20;1.67;;;20.90;99.90;;;;;;5022304;28;20124;-74
2022/03/02 05:50:10;;;;;;;9.02;1.83;;;21.00;99.90;;;;;;5027570;28;20567;-75
2022/03/02 05:52:37;;;;;;;12.65;2.15;;;21.00;99.90;;;;;;5022650;28;20075;-77
2022/03/02 05:55:05;;;;;;;5.85;1.63;;;21.00;99.90;;;;;;5019260;28;20412;-75
2022/03/02 05:57:32;;;;;;;7.55;2.17;;;21.00;99.90;;;;;;5021505;28;21304;-74
2022/03/02 06:00:00;;;;;;;10.98;2.22;;;21.00;99.90;;;;;;5020294;28;20032;-75
2022/03/02 06:02:27;;;;;;;5.53;1.40;;;21.10;99.90;;;;;;5020543;28;20116;-76
2022/03/02 06:04:54;;;;;;;7.47;1.67;;;21.10;99.90;;;;;;5024989;28;20025;-73
2022/03/02 06:07:22;;;;;;;5.55;1.00;;;21.10;99.90;;;;;;5025181;28;20024;-75
2022/03/02 06:09:49;;;;;;;8.75;1.00;;;21.10;99.90;;;;;;5027868;28;20095;-78
2022/03/02 06:12:17;;;;;;;5.82;1.10;;;21.10;99.90;;;;;;5029499;28;20103;-77
2022/03/02 06:14:45;;;;;;;6.18;1.10;;;21.00;99.90;;;;;;5026926;28;20473;-76
2022/03/02 06:17:12;;;;;;;3.90;0.47;;;21.00;99.90;;;;;;5026006;28;20022;-76
2022/03/02 06:19:40;;;;;;;4.38;0.80;;;21.00;99.90;;;;;;5026760;28;20041;-75
2022/03/02 06:22:08;;;;;;;3.35;1.05;;;21.00;99.90;;;;;;5023735;28;20414;-77
2022/03/02 06:24:36;;;;;;;4.32;1.00;;;21.00;99.90;;;;;;5029245;28;20030;-77
2022/03/02 06:27:04;;;;;;;7.75;1.70;;;21.10;99.90;;;;;;5025664;28;20444;-77
2022/03/02 06:29:32;;;;;;;3.65;0.60;;;21.10;99.90;;;;;;5027498;28;20056;-72
2022/03/02 06:32:00;;;;;;;8.35;1.88;;;21.20;99.90;;;;;;5028714;28;20057;-74
2022/03/02 06:34:27;;;;;;;8.45;1.42;;;21.10;99.90;;;;;;5029294;28;20160;-76
2022/03/02 06:36:55;;;;;;;4.93;1.00;;;21.10;99.90;;;;;;5023916;28;20049;-74
2022/03/02 06:39:23;;;;;;;8.68;1.17;;;21.10;99.90;;;;;;5024676;28;20036;-74
2022/03/02 06:41:59;;;;;;;5.18;1.10;;;21.10;99.90;;;;;;5023863;28;20474;-74
2022/03/02 06:44:32;;;;;;;5.25;0.95;;;21.00;99.90;;;;;;5018962;28;20029;-75
2022/03/02 06:47:05;;;;;;;5.50;1.73;;;21.00;99.90;;;;;;5024169;28;20086;-75
2022/03/02 06:49:50;;;;;;;4.78;1.25;;;20.90;99.90;;;;;;5021389;28;20547;-74
2022/03/02 06:52:27;;;;;;;5.17;0.83;;;21.00;99.90;;;;;;5021956;28;20377;-73
2022/03/02 06:54:58;;;;;;;7.03;1.50;;;20.90;99.90;;;;;;5017713;28;20302;-74
2022/03/02 06:57:28;;;;;;;5.97;0.77;;;20.90;99.90;;;;;;5021451;28;20036;-72
2022/03/02 07:00:12;;;;;;;7.32;1.50;;;20.90;99.90;;;;;;5022270;28;20107;-75
2022/03/02 07:02:44;;;;;;;8.23;1.45;;;20.80;99.90;;;;;;5021385;28;20021;-72
2022/03/02 07:05:11;;;;;;;5.32;1.42;;;20.80;99.90;;;;;;5021752;28;20034;-75
2022/03/02 07:07:39;;;;;;;6.10;1.15;;;20.80;99.90;;;;;;5023181;28;20045;-76
2022/03/02 07:10:08;;;;;;;3.25;1.10;;;20.80;99.90;;;;;;5027026;28;20064;-76
2022/03/02 07:12:39;;;;;;;4.13;0.93;;;20.80;99.90;;;;;;5022329;28;20040;-75
2022/03/02 07:15:08;;;;;;;2.95;1.02;;;20.80;99.90;;;;;;5020965;28;20106;-76
2022/03/02 07:17:35;;;;;;;2.63;0.65;;;20.80;99.90;;;;;;5022030;28;20034;-75
2022/03/02 07:20:06;;;;;;;3.88;0.50;;;20.80;99.90;;;;;;5017887;28;21008;-74
2022/03/02 07:22:36;;;;;;;1.92;0.30;;;20.80;99.90;;;;;;5018356;28;20029;-76
2022/03/02 07:25:16;;;;;;;1.88;0.63;;;20.80;99.90;;;;;;5019731;28;20022;-76
2022/03/02 07:27:43;;;;;;;1.60;0.65;;;20.70;99.90;;;;;;5026978;28;20048;-77
2022/03/02 07:30:13;;;;;;;0.80;0.30;;;20.70;99.90;;;;;;5027073;28;20053;-74
2022/03/02 07:32:45;;;;;;;2.03;0.47;;;20.70;99.90;;;;;;5026025;28;20122;-75
2022/03/02 07:35:14;;;;;;;2.10;0.77;;;20.70;99.90;;;;;;5029040;28;20041;-75
2022/03/02 07:37:44;;;;;;;1.85;0.70;;;20.70;99.90;;;;;;5027021;28;20028;-75
2022/03/02 07:40:13;;;;;;;0.80;0.55;;;20.70;99.90;;;;;;5026331;28;20025;-74
2022/03/02 07:42:41;;;;;;;0.65;0.20;;;20.70;99.90;;;;;;5025647;28;20032;-76
2022/03/02 07:45:09;;;;;;;1.85;0.30;;;20.60;99.90;;;;;;5026600;28;20462;-75
2022/03/02 07:47:37;;;;;;;1.15;0.50;;;20.60;99.90;;;;;;5027363;28;20029;-77
2022/03/02 07:50:05;;;;;;;0.93;0.45;;;20.60;99.90;;;;;;5024715;28;20060;-77
2022/03/02 07:52:38;;;;;;;2.17;0.40;;;20.60;99.90;;;;;;5022488;28;20053;-77
2022/03/02 07:55:09;;;;;;;1.13;0.43;;;20.60;99.90;;;;;;5028026;28;20399;-75
2022/03/02 07:57:41;;;;;;;3.65;2.80;;;20.60;99.90;;;;;;5029531;28;20075;-73
2022/03/02 08:00:11;;;;;;;2.90;1.45;;;20.60;99.90;;;;;;5029631;28;20018;-72
2022/03/02 08:02:40;;;;;;;3.47;0.60;;;20.50;99.90;;;;;;5028968;28;20468;-73
2022/03/02 08:05:10;;;;;;;2.88;0.70;;;20.60;99.90;;;;;;5019459;28;20435;-74
2022/03/02 08:07:37;;;;;;;3.85;0.82;;;20.50;99.90;;;;;;5032023;28;20059;-76
2022/03/02 08:10:05;;;;;;;4.13;1.02;;;20.50;99.90;;;;;;5031948;28;20563;-75
2022/03/02 08:12:34;;;;;;;2.45;0.55;;;20.60;99.90;;;;;;5031693;28;20384;-75
2022/03/02 08:15:05;;;;;;;1.70;0.50;;;20.70;99.90;;;;;;5030592;28;20033;-74
2022/03/02 08:17:33;;;;;;;1.45;0.55;;;20.60;99.90;;;;;;5031853;28;20029;-76
2022/03/02 08:20:00;;;;;;;2.03;0.95;;;20.70;99.90;;;;;;5025804;28;20032;-75
2022/03/02 08:22:29;;;;;;;4.18;0.40;;;20.60;99.90;;;;;;5031441;28;20494;-73
2022/03/02 08:25:10;;;;;;;5.13;0.85;;;20.60;99.90;;;;;;5017608;28;20116;-74
2022/03/02 08:27:43;;;;;;;2.58;0.40;;;20.60;99.90;;;;;;5031642;28;20500;-73
2022/03/02 08:30:12;;;;;;;2.80;0.50;;;20.60;99.90;;;;;;5023729;28;20030;-73
2022/03/02 08:32:46;;;;;;;2.83;0.55;;;20.60;99.90;;;;;;5023357;28;20019;-74
2022/03/02 08:35:14;;;;;;;3.60;1.55;;;20.60;99.90;;;;;;5029534;28;20518;-75
2022/03/02 08:37:42;;;;;;;4.72;0.52;;;20.60;99.90;;;;;;5031865;28;20029;-73
2022/03/02 08:40:11;;;;;;;3.58;0.85;;;20.60;99.90;;;;;;5031231;28;20029;-75
2022/03/02 08:42:39;;;;;;;2.47;0.30;;;20.60;99.90;;;;;;5031335;28;20030;-75
2022/03/02 08:45:07;;;;;;;2.90;0.60;;;20.60;99.90;;;;;;5030680;28;20100;-75
2022/03/02 08:47:34;;;;;;;4.40;0.63;;;20.70;99.90;;;;;;5032143;28;20033;-75
2022/03/02 08:50:03;;;;;;;5.32;1.20;;;20.60;99.90;;;;;;5032089;28;20178;-76
2022/03/02 08:52:32;;;;;;;2.30;0.65;;;20.60;99.90;;;;;;5031930;28;20033;-73
2022/03/02 08:55:06;;;;;;;4.30;0.50;;;20.70;99.90;;;;;;5030478;28;20029;-77
2022/03/02 08:57:34;;;;;;;1.75;0.43;;;20.70;99.90;;;;;;5028427;28;20025;-74
2022/03/02 09:00:07;;;;;;;7.90;0.95;;;20.80;99.90;;;;;;5029628;28;20105;-77
2022/03/02 09:02:37;;;;;;;5.10;0.82;;;20.80;99.90;;;;;;5031174;28;20040;-76
2022/03/02 09:05:07;;;;;;;5.28;1.45;;;20.80;99.90;;;;;;5029711;28;20067;-76
2022/03/02 09:07:36;;;;;;;3.30;0.80;;;20.80;99.90;;;;;;5032079;28;20025;-77
2022/03/02 09:10:04;;;;;;;5.63;0.93;;;20.80;99.90;;;;;;5033468;28;20036;-76
2022/03/02 09:12:32;;;;;;;2.78;0.60;;;20.70;99.90;;;;;;5029642;28;20033;-75
2022/03/02 09:14:59;;;;;;;2.22;0.63;;;20.70;99.90;;;;;;5028616;28;20038;-78
2022/03/02 09:17:28;;;;;;;3.90;0.63;;;20.60;99.90;;;;;;5024114;28;20030;-78
2022/03/02 09:19:56;;;;;;;2.75;0.32;;;20.50;99.90;;;;;;5020300;28;20044;-76
2022/03/02 09:22:25;;;;;;;0.75;0.20;;;20.40;99.90;;;;;;5023296;28;20075;-74
2022/03/02 09:24:53;;;;;;;1.15;0.40;;;20.30;99.90;;;;;;5022991;28;20103;-76
2022/03/02 09:27:21;;;;;;;1.17;0.28;;;20.20;99.90;;;;;;5023430;28;20618;-75
2022/03/02 09:29:53;;;;;;;0.95;0.20;;;20.20;99.90;;;;;;5023597;28;20268;-77
2022/03/02 09:32:23;;;;;;;2.35;0.40;;;20.10;99.90;;;;;;5024599;28;20496;-77
2022/03/02 09:34:54;;;;;;;4.22;0.55;;;20.10;99.90;;;;;;5022106;28;20133;-78
2022/03/02 09:37:23;;;;;;;1.65;0.40;;;20.10;99.90;;;;;;5031231;28;20035;-78
2022/03/02 09:39:51;;;;;;;3.00;0.40;;;20.10;99.90;;;;;;5024250;28;20068;-78
2022/03/02 09:42:32;;;;;;;3.40;0.60;;;20.10;99.90;;;;;;5024295;28;20033;-77
2022/03/02 09:44:59;;;;;;;3.30;1.00;;;20.00;99.90;;;;;;5021219;28;20033;-77
2022/03/02 09:47:44;;;;;;;6.53;1.38;;;20.00;99.90;;;;;;5023132;28;20144;-76
2022/03/02 09:50:14;;;;;;;3.08;1.05;;;20.00;99.90;;;;;;5023761;28;20021;-76
2022/03/02 09:52:45;;;;;;;4.85;0.40;;;20.10;99.90;;;;;;5022998;28;20499;-78
2022/03/02 09:55:15;;;;;;;5.40;0.80;;;20.00;99.90;;;;;;5022247;28;20443;-76
2022/03/02 09:57:47;;;;;;;5.78;0.60;;;20.00;99.90;;;;;;5022070;28;20329;-74
2022/03/02 10:00:18;;;;;;;5.68;0.68;;;20.00;99.90;;;;;;5022485;28;20514;-76
2022/03/02 10:02:48;;;;;;;3.55;1.08;;;20.00;99.90;;;;;;5021700;28;20065;-76
2022/03/02 10:05:22;;;;;;;6.75;0.50;;;20.10;99.90;;;;;;5021550;28;20426;-76
2022/03/02 10:08:07;;;;;;;3.17;0.50;;;20.00;99.90;;;;;;5023238;28;20496;-77
2022/03/02 10:10:37;;;;;;;7.65;1.25;;;20.00;99.90;;;;;;5027346;28;20052;-78
2022/03/02 10:13:10;;;;;;;10.85;1.25;;;20.00;99.90;;;;;;5030485;28;20028;-76
2022/03/02 10:15:39;;;;;;;3.72;1.17;;;20.00;99.90;;;;;;5029829;28;20084;-77
2022/03/02 10:18:11;;;;;;;6.40;1.60;;;20.00;99.90;;;;;;5030557;28;20091;-78
2022/03/02 10:20:43;;;;;;;7.93;0.90;;;20.00;99.90;;;;;;5026541;28;20172;-78
2022/03/02 10:23:33;;;;;;;4.82;0.90;;;20.00;99.90;;;;;;5025856;28;20483;-78
2022/03/02 10:26:40;;;;;;;4.75;0.80;;;20.00;99.90;;;;;;5027439;28;20436;-79
2022/03/02 10:29:30;;;;;;;7.72;1.92;;;20.00;99.90;;;;;;5005573;28;20529;-79
2022/03/02 10:32:09;;;;;;;3.67;0.85;;;20.00;99.90;;;;;;5024660;28;20087;-78
2022/03/02 10:34:48;;;;;;;5.50;0.93;;;20.10;99.90;;;;;;5023559;28;20384;-78
2022/03/02 10:37:23;;;;;;;4.68;1.25;;;20.10;99.90;;;;;;5027598;28;20053;-78
2022/03/02 10:40:15;;;;;;;10.55;1.38;;;20.00;99.90;;;;;;5029011;28;20040;-77
2022/03/02 10:42:57;;;;;;;9.07;1.08;;;20.10;99.90;;;;;;5024183;28;20032;-79
2022/03/02 10:45:26;;;;;;;8.50;1.10;;;20.10;99.90;;;;;;5025611;28;20100;-79
2022/03/02 10:48:25;;;;;;;8.38;1.55;;;20.10;99.90;;;;;;5027603;28;20025;-79
2022/03/02 10:50:56;;;;;;;11.77;2.22;;;20.10;99.90;;;;;;5028923;28;20018;-77
2022/03/02 10:53:27;;;;;;;5.65;2.55;;;20.10;99.90;;;;;;5029853;28;20033;-78
2022/03/02 10:55:58;;;;;;;6.90;1.98;;;20.10;99.90;;;;;;5028334;28;20041;-78
2022/03/02 10:58:29;;;;;;;4.30;1.63;;;20.10;99.90;;;;;;5023385;28;20030;-78
2022/03/02 11:01:00;;;;;;;9.63;1.63;;;20.10;99.90;;;;;;5029281;28;20060;-78
2022/03/02 11:03:36;;;;;;;5.68;1.15;;;20.10;99.90;;;;;;5028565;28;20480;-76
2022/03/02 11:06:08;;;;;;;4.55;1.60;;;20.10;99.90;;;;;;5030345;28;20083;-76
2022/03/02 11:08:37;;;;;;;4.60;0.95;;;20.20;99.90;;;;;;5030116;28;20533;-76
2022/03/02 11:11:08;;;;;;;3.58;0.95;;;20.20;99.90;;;;;;5022026;28;20025;-76
2022/03/02 11:13:35;;;;;;;7.18;0.80;;;20.20;99.90;;;;;;5027611;28;20040;-83
2022/03/02 11:16:05;;;;;;;5.63;1.10;;;20.20;99.90;;;;;;5027219;28;20079;-78
2022/03/02 11:18:37;;;;;;;6.90;0.80;;;20.20;99.90;;;;;;5029639;28;20033;-77
2022/03/02 11:21:15;;;;;;;7.20;1.30;;;20.20;99.90;;;;;;5028756;28;20048;-75
2022/03/02 11:23:53;;;;;;;3.53;1.13;;;20.10;99.90;;;;;;5025753;28;20036;-77
2022/03/02 11:26:28;;;;;;;3.70;1.25;;;20.20;99.90;;;;;;5031798;28;20160;-80
2022/03/02 11:28:57;;;;;;;2.38;0.70;;;20.20;99.90;;;;;;5031504;28;20054;-80
2022/03/02 11:31:29;;;;;;;6.57;1.20;;;20.20;99.90;;;;;;5030384;28;20026;-72
2022/03/02 11:34:16;;;;;;;4.57;1.60;;;20.20;99.90;;;;;;5023816;28;20846;-79
2022/03/02 11:36:46;;;;;;;3.50;1.45;;;20.20;99.90;;;;;;5023936;28;20036;-79
2022/03/02 11:39:16;;;;;;;5.80;1.90;;;20.20;99.90;;;;;;5025761;28;20032;-82
2022/03/02 11:41:46;;;;;;;6.18;2.03;;;20.20;99.90;;;;;;5032335;28;20036;-78
2022/03/02 11:44:49;;;;;;;2.95;1.60;;;20.20;99.90;;;;;;5028530;28;20021;-76
2022/03/02 11:47:20;;;;;;;4.97;1.25;;;20.20;99.90;;;;;;5019315;28;20555;-80
2022/03/02 11:49:50;;;;;;;3.80;1.02;;;20.20;99.90;;;;;;5028875;28;20793;-80
2022/03/02 11:52:26;;;;;;;5.00;1.10;;;20.30;99.90;;;;;;5020098;28;20026;-81
2022/03/02 11:54:57;;;;;;;5.22;2.00;;;20.30;99.90;;;;;;5032347;28;20042;-77
2022/03/02 11:57:28;;;;;;;10.40;2.40;;;20.20;99.90;;;;;;5032223;28;20079;-79
2022/03/02 12:00:09;;;;;;;4.78;1.90;;;20.20;99.90;;;;;;5032846;28;20096;-78
2022/03/02 12:02:46;;;;;;;6.35;1.73;;;20.20;99.90;;;;;;5023839;28;20383;-78
2022/03/02 12:05:15;;;;;;;3.75;0.98;;;20.20;99.90;;;;;;5026673;28;20030;-77
2022/03/02 12:07:48;;;;;;;1.67;0.50;;;20.20;99.90;;;;;;5018450;28;20033;-78
2022/03/02 12:10:31;;;;;;;1.65;0.65;;;20.20;99.90;;;;;;5016992;28;20499;-77
2022/03/02 12:12:59;;;;;;;1.80;0.70;;;20.20;99.90;;;;;;5032466;28;20551;-81
2022/03/02 12:15:47;;;;;;;1.13;0.63;;;20.20;99.90;;;;;;5021391;28;20095;-79
2022/03/02 12:18:16;;;;;;;1.00;0.43;;;20.20;99.90;;;;;;5031278;28;20022;-79
2022/03/02 12:20:55;;;;;;;2.72;0.85;;;20.20;99.90;;;;;;5028407;28;20476;-77
2022/03/02 12:23:28;;;;;;;3.30;0.50;;;20.20;99.90;;;;;;5028083;28;20344;-81
2022/03/02 12:25:58;;;;;;;3.50;0.50;;;20.20;99.90;;;;;;5030761;28;20029;-79
2022/03/02 12:28:26;;;;;;;2.88;0.50;;;20.20;99.90;;;;;;5029504;28;20053;-78
2022/03/02 12:30:54;;;;;;;5.28;1.20;;;20.20;99.90;;;;;;5025388;28;20029;-78
2022/03/02 12:33:22;;;;;;;3.00;0.77;;;20.30;99.90;;;;;;5030421;28;20025;-76
2022/03/02 12:35:50;;;;;;;3.05;0.75;;;20.30;99.90;;;;;;5028525;28;20037;-75
2022/03/02 12:38:18;;;;;;;5.32;0.80;;;20.20;99.90;;;;;;5025519;28;20028;-74
2022/03/02 12:40:46;;;;;;;7.47;1.20;;;20.30;99.90;;;;;;5022684;28;20037;-79
2022/03/02 12:43:16;;;;;;;3.97;0.70;;;20.30;99.90;;;;;;5026629;28;20025;-79
2022/03/02 12:45:48;;;;;;;2.67;1.15;;;20.30;99.90;;;;;;5028211;28;20388;-78
2022/03/02 12:48:17;;;;;;;3.53;0.75;;;20.30;99.90;;;;;;5022923;28;20040;-73
2022/03/02 12:50:49;;;;;;;3.35;1.48;;;20.30;99.90;;;;;;5030176;28;20025;-74
2022/03/02 12:53:19;;;;;;;7.00;0.93;;;20.30;99.90;;;;;;5028834;28;20075;-75
2022/03/02 12:55:46;;;;;;;3.80;1.00;;;20.30;99.90;;;;;;5028695;28;20087;-76
2022/03/02 12:58:13;;;;;;;5.50;1.08;;;20.40;99.90;;;;;;5016745;28;20469;-74